Granby, Massachusetts
Current Conditions -  °F | °C
As of 3:13 AM on Friday 31 Oct 2014 (Local Time) from KCEF Reporting Station
Haze Haze  
Wind Chill: 28°   Ceiling: Unl
Heat Index: 28°   Visibility: 1mi
Dew Point: 28°   Wind: 1mph
Humidity: 100%   Direction: 50°NE
Pressure: 30.01"   Gusts: NA
Location:  42.26°N, 72.53°W
Report Text: KCEF 310713Z AUTO 05001KT 1SM R23/5000FT BR CLR M02/M02 A3001 RMK AO2 VIS 1V2
Loading
Personal Weather Stations






























Interactive Weather Map
Tropical Storm Tracking
New forecast layout! Learn more

10-Day Weather Forecast

Advertisements
Track Severe Weather on mobile